createdAt,value
2024-02-16T00:02:55.379Z,10.42
2024-02-16T00:08:01.026Z,10.40
2024-02-16T00:13:03.558Z,10.40
2024-02-16T00:18:09.180Z,10.36
2024-02-16T00:23:11.846Z,10.29
2024-02-16T00:28:13.847Z,10.18
2024-02-16T00:33:15.998Z,10.06
2024-02-16T00:38:17.994Z,9.90
2024-02-16T00:43:24.003Z,9.73
2024-02-16T00:48:26.127Z,9.57
2024-02-16T00:53:28.448Z,9.43
2024-02-16T00:58:30.517Z,9.29
2024-02-16T01:03:32.665Z,9.18
2024-02-16T01:08:34.919Z,9.10
2024-02-16T01:13:36.888Z,9.03
2024-02-16T01:18:39.761Z,8.95
2024-02-16T01:23:42.027Z,8.88
2024-02-16T01:28:43.966Z,8.80
2024-02-16T01:33:46.118Z,8.73
2024-02-16T01:38:48.512Z,8.64
2024-02-16T01:43:54.207Z,8.55
2024-02-16T01:48:56.761Z,8.45
2024-02-16T01:53:58.992Z,8.36
2024-02-16T01:59:00.999Z,8.30
2024-02-16T02:04:03.672Z,8.23
2024-02-16T02:09:05.711Z,8.17
2024-02-16T02:14:07.625Z,8.13
2024-02-16T02:19:09.599Z,8.09
2024-02-16T02:24:12.251Z,8.06
2024-02-16T02:29:14.299Z,8.02
2024-02-16T02:34:16.411Z,7.97
2024-02-16T02:39:18.268Z,7.91
2024-02-16T02:44:23.009Z,7.87
2024-02-16T02:49:25.020Z,7.83
2024-02-16T02:54:27.060Z,7.80
2024-02-16T02:59:29.345Z,7.77
2024-02-16T03:04:31.288Z,7.73
2024-02-16T03:09:33.293Z,7.70
2024-02-16T03:14:35.297Z,7.66
2024-02-16T03:19:37.429Z,7.60
2024-02-16T03:24:39.733Z,7.55
2024-02-16T03:29:41.685Z,7.48
2024-02-16T03:34:43.854Z,7.45
2024-02-16T03:39:46.111Z,7.42
2024-02-16T03:44:48.127Z,7.38
2024-02-16T03:49:50.149Z,7.32
2024-02-16T03:54:52.904Z,7.26
2024-02-16T03:59:55.801Z,7.21
2024-02-16T04:04:57.718Z,7.16
2024-02-16T04:09:59.963Z,7.08
2024-02-16T04:15:02.162Z,7.01
2024-02-16T04:20:04.409Z,6.96
2024-02-16T04:25:07.308Z,6.89
2024-02-16T04:30:09.492Z,6.82
2024-02-16T04:35:13.322Z,6.75
2024-02-16T04:40:16.677Z,6.67
2024-02-16T04:45:18.945Z,6.57
2024-02-16T04:50:20.913Z,6.48
2024-02-16T04:55:22.865Z,6.38
2024-02-16T05:00:24.927Z,6.30
2024-02-16T05:05:26.824Z,6.24
2024-02-16T05:10:29.536Z,6.15
2024-02-16T05:15:32.898Z,6.05
2024-02-16T05:20:34.947Z,5.97
2024-02-16T05:25:36.875Z,5.91
2024-02-16T05:30:38.926Z,5.85
2024-02-16T05:35:41.625Z,5.81
2024-02-16T06:18:32.992Z,5.64
2024-02-16T06:23:35.033Z,5.65
2024-02-16T06:28:36.951Z,5.62
2024-02-16T06:33:38.963Z,5.64
2024-02-16T06:38:40.949Z,5.68
2024-02-16T06:43:43.528Z,5.73
2024-02-16T06:48:46.539Z,5.81
2024-02-16T06:53:48.425Z,5.94
2024-02-16T06:58:50.358Z,6.13
2024-02-16T07:03:52.493Z,6.43
2024-02-16T07:08:55.645Z,6.58
2024-02-16T07:13:57.761Z,6.88
2024-02-16T07:18:59.931Z,7.12
2024-02-16T07:24:02.633Z,7.32
2024-02-16T07:29:04.550Z,7.73
2024-02-16T07:34:07.342Z,7.89
2024-02-16T07:39:13.420Z,8.03
2024-02-16T07:44:16.911Z,8.20
2024-02-16T07:49:19.035Z,8.37
2024-02-16T07:54:21.498Z,8.60
2024-02-16T07:59:25.110Z,8.84
2024-02-16T08:04:27.004Z,9.07
2024-02-16T08:09:29.443Z,9.31
2024-02-16T08:14:33.827Z,9.58
2024-02-16T08:19:37.713Z,9.80
2024-02-16T08:24:40.566Z,10.00
2024-02-16T08:29:45.223Z,10.16
2024-02-16T08:34:47.290Z,10.32
2024-02-16T08:39:49.396Z,10.46
2024-02-16T08:44:51.900Z,10.70
2024-02-16T08:49:54.167Z,10.93
2024-02-16T08:54:56.234Z,11.16
2024-02-16T08:59:58.240Z,11.32
2024-02-16T09:05:00.475Z,11.47
2024-02-16T09:10:03.048Z,11.63
2024-02-16T09:15:07.346Z,11.76
2024-02-16T09:20:11.685Z,11.87
2024-02-16T09:25:15.534Z,11.99
2024-02-16T09:30:18.355Z,12.15
2024-02-16T09:35:20.654Z,12.25
2024-02-16T09:40:24.162Z,12.36
2024-02-16T09:45:28.911Z,12.53
2024-02-16T09:50:31.629Z,12.70
2024-02-16T09:55:34.990Z,12.87
2024-02-16T10:00:37.172Z,13.07
2024-02-16T10:05:40.006Z,13.23
2024-02-16T10:10:42.030Z,13.44
2024-02-16T10:15:43.980Z,13.58
2024-02-16T10:20:46.843Z,13.75
2024-02-16T10:25:48.827Z,13.94
2024-02-16T10:30:51.066Z,14.15
2024-02-16T10:35:54.330Z,14.31
2024-02-16T10:40:58.885Z,14.39
2024-02-16T10:46:01.292Z,14.52
2024-02-16T10:51:04.041Z,14.30
2024-02-16T10:56:08.757Z,14.27
2024-02-16T11:01:31.447Z,14.36
2024-02-16T11:06:34.155Z,14.11
2024-02-16T11:11:37.570Z,14.25
2024-02-16T11:16:46.738Z,14.58
2024-02-16T11:22:01.195Z,14.56
2024-02-16T11:27:06.915Z,14.39
2024-02-16T11:32:09.295Z,14.38
2024-02-16T11:37:18.542Z,14.59
2024-02-16T11:42:21.320Z,14.56
2024-02-16T11:47:30.430Z,14.57
2024-02-16T11:52:36.329Z,14.55
2024-02-16T11:57:40.209Z,14.52
2024-02-16T12:02:42.223Z,14.59
2024-02-16T12:07:45.904Z,14.66
2024-02-16T12:12:49.517Z,14.65
2024-02-16T12:18:02.653Z,14.65
2024-02-16T12:23:14.366Z,14.73
2024-02-16T12:28:16.485Z,14.77
2024-02-16T12:33:18.877Z,14.79
2024-02-16T12:38:21.611Z,14.82
2024-02-16T12:43:23.419Z,14.85
2024-02-16T12:48:25.448Z,14.94
2024-02-16T12:53:29.650Z,15.01
2024-02-16T12:58:31.758Z,15.05
2024-02-16T13:03:37.627Z,15.10
2024-02-16T13:08:39.873Z,15.17
2024-02-16T13:13:41.663Z,15.19
2024-02-16T13:18:43.802Z,15.23
2024-02-16T13:29:05.739Z,15.35
2024-02-16T13:34:07.794Z,15.36
2024-02-16T13:39:09.653Z,15.37
2024-02-16T14:10:53.350Z,15.16
2024-02-16T14:15:55.419Z,15.10
2024-02-16T14:20:57.686Z,15.05
2024-02-16T14:26:00.556Z,14.97
2024-02-16T14:31:04.180Z,14.88
2024-02-16T14:36:06.750Z,14.79
2024-02-16T14:41:09.492Z,14.67
2024-02-16T14:46:11.445Z,14.56
2024-02-16T14:51:13.415Z,14.45
2024-02-16T14:56:15.765Z,14.33
2024-02-16T15:01:18.060Z,14.24
2024-02-16T15:06:19.992Z,14.14
2024-02-16T15:11:21.970Z,14.03
2024-02-16T15:16:23.882Z,13.91
2024-02-16T15:21:25.855Z,13.77
2024-02-16T15:26:27.854Z,13.60
2024-02-16T15:31:29.797Z,13.42
2024-02-16T15:36:31.730Z,13.25
2024-02-16T15:41:34.006Z,13.07
2024-02-16T15:46:35.999Z,12.88
2024-02-16T15:51:38.158Z,12.68
2024-02-16T15:56:40.280Z,12.46
2024-02-16T16:01:42.308Z,12.54
2024-02-16T16:06:45.806Z,12.72
2024-02-16T16:11:48.056Z,12.75
2024-02-16T16:16:55.042Z,12.69
2024-02-16T16:21:57.551Z,12.65
2024-02-16T16:26:59.465Z,12.59
2024-02-16T16:37:06.396Z,12.41
2024-02-16T16:42:09.385Z,12.32
2024-02-16T16:47:13.756Z,12.20
2024-02-16T16:52:15.734Z,12.07
2024-02-16T16:57:20.318Z,11.93
2024-02-16T17:02:22.606Z,11.79
2024-02-16T17:07:24.710Z,11.69
2024-02-16T17:12:27.489Z,11.56
2024-02-16T17:17:31.791Z,11.43
2024-02-16T17:22:33.976Z,11.32
2024-02-16T17:27:37.620Z,11.21
2024-02-16T17:32:43.215Z,11.11
2024-02-16T17:37:46.876Z,10.98
2024-02-16T17:42:51.915Z,10.85
2024-02-16T17:47:55.364Z,10.73
2024-02-16T17:52:57.259Z,10.67
2024-02-16T17:58:00.366Z,10.66
2024-02-16T18:03:03.768Z,10.61
2024-02-16T18:08:06.254Z,10.59
2024-02-16T18:13:08.193Z,10.60
2024-02-16T18:18:10.218Z,10.62
2024-02-16T18:23:12.425Z,10.60
2024-02-16T18:28:16.726Z,10.60
2024-02-16T18:33:24.133Z,10.60
2024-02-16T18:38:26.644Z,10.53
2024-02-16T18:43:28.471Z,10.47
2024-02-16T18:48:30.653Z,10.44
2024-02-16T18:53:32.732Z,10.49
2024-02-16T18:58:34.867Z,10.50
2024-02-16T19:03:37.994Z,10.64
2024-02-16T19:08:39.918Z,10.67
2024-02-16T19:13:42.039Z,10.70
2024-02-16T19:18:45.936Z,10.73
2024-02-16T19:23:47.974Z,10.78
2024-02-16T19:28:50.304Z,10.76
2024-02-16T19:33:52.267Z,10.70
2024-02-16T19:38:56.856Z,10.74
2024-02-16T19:43:58.808Z,10.78
2024-02-16T19:49:00.790Z,10.80
2024-02-16T19:54:04.699Z,10.82
2024-02-16T19:59:06.758Z,10.88
2024-02-16T20:04:09.134Z,10.88
2024-02-16T20:09:12.644Z,10.87
2024-02-16T20:14:14.716Z,10.79
2024-02-16T20:19:17.076Z,10.75
2024-02-16T20:24:20.889Z,10.76
2024-02-16T20:29:24.151Z,10.75
2024-02-16T20:34:26.368Z,10.74
2024-02-16T20:39:28.512Z,10.79
2024-02-16T20:44:30.500Z,10.75
2024-02-16T20:49:32.383Z,10.77
2024-02-16T20:54:35.774Z,10.75
2024-02-16T20:59:37.888Z,10.80
2024-02-16T21:04:41.128Z,10.77
2024-02-16T21:09:43.340Z,10.82
2024-02-16T21:14:45.660Z,10.87
2024-02-16T21:19:48.209Z,10.87
2024-02-16T21:24:51.559Z,10.88
2024-02-16T21:29:53.507Z,10.90
2024-02-16T21:34:55.986Z,10.90
2024-02-16T21:39:58.540Z,10.92
2024-02-16T21:45:00.524Z,10.87
2024-02-16T21:50:03.264Z,10.91
2024-02-16T21:55:05.752Z,10.92
2024-02-16T22:00:08.262Z,10.93
2024-02-16T22:05:10.426Z,10.91
2024-02-16T22:10:12.628Z,10.88
2024-02-16T22:15:14.847Z,10.82
2024-02-16T22:20:16.722Z,10.86
2024-02-16T22:25:19.530Z,10.78
2024-02-16T22:30:21.547Z,10.74
2024-02-16T22:35:24.037Z,10.79
2024-02-16T22:40:26.085Z,10.72
2024-02-16T22:45:28.042Z,10.67
2024-02-16T22:50:30.033Z,10.64
2024-02-16T22:55:32.245Z,10.59
2024-02-16T23:00:34.693Z,10.46
2024-02-16T23:05:38.523Z,10.44
2024-02-16T23:10:42.808Z,10.35
2024-02-16T23:15:44.848Z,10.40
2024-02-16T23:20:47.443Z,10.32
2024-02-16T23:25:50.448Z,10.33
2024-02-16T23:30:52.465Z,10.27
2024-02-16T23:35:54.450Z,10.21
2024-02-16T23:40:57.808Z,10.13
2024-02-16T23:46:02.566Z,10.15
2024-02-16T23:51:04.740Z,10.13
2024-02-16T23:56:07.034Z,10.07
